Pagina principale
METAR-TAF:

METAR-TAF

Aeroporti :

Emmen, Svizzera

latitudine: 47-05-32N, longitudine: 8-18-16E, altezza: 426 m

Osservazione

Il bollettino è stato emesso 47 minuti fa, alle 07:20 UTC
Vento 2 kt da direzioni variabili
Temperature 11°C
Umidità 87%
Pressione 1010 hPa
Visibilità: 9000 m
Nubi sparse ad un'altezza di 3100 ft
Cielo coperto ad un'altezza di 4100 ft
rovesci di pioggia

METAR: LSME 070720Z AUTO VRB02KT 9000NDV -SHRA SCT031 OVC041 11/09 Q1010 RESHRA RMK

Ora: 10:07 (08:07 UTC)


TAF: mancante

Osservazioni e previsioni meteorologiche di più di 4000 aeroporti (messaggi METAR e TAF).

Le stazioni disponibili sono rappresentate dai dischi gialli e rossi sulla carta.

Puntare il mouse per vedere il nome della stazione.

Clicca sopra per visualizzare le osservazioni e previsioni meteorologiche.

Per cambiare la mappa : fare clic sui pulsanti verdi con una croce nera per ingrandire, il pulsante verde con un trattino per diminuire, o sulla freccia verde per le mappe adiacenti.


METAR-TAF: